CheckWX is a tool to help pilots better visualize weather data.  It is not intended as a substitute for an official pre-flight weather briefing.

21:02:18 UTC

KIYA METAR
Abbeville Chris Crusta Memorial Airport
Abbeville, Louisiana, USA
Current

32 mins ago

KIYA 202030Z AUTO 26008KT 10SM CLR 23/07 A3006 RMK AO2 P0001 T02300066
Observed
Apr-20 @ 20:30 UTC
Wind
  • 260° at 8 KTS
Visibility
10 SM
Flight Rules
VFR
Cloud Levels
  • Clear skies
Temperature
23°C / 73°F
Dewpoint
C / 45°F
Humidity
36%
Altimeter
30.06" Hg
Pressure
1017.92 hPa
Current Rain
0.01"
Previous

52 mins ago

KIYA 202010Z AUTO 24006KT 10SM CLR 23/06 A3007 RMK AO2 T02250060
Observed
Apr-20 @ 20:10 UTC
Wind
  • 240° at 6 KTS
Visibility
10 SM
Flight Rules
VFR
Cloud Levels
  • Clear skies
Temperature
23°C / 73°F
Dewpoint
C / 43°F
Humidity
33%
Altimeter
30.07" Hg
Pressure
1018.32 hPa
Previous

1 hour ago

KIYA 201950Z AUTO 24004KT 10SM CLR 22/06 A3007 RMK AO2 P0001 T02230062
Observed
Apr-20 @ 19:50 UTC
Wind
  • 240° at 4 KTS
Visibility
10 SM
Flight Rules
VFR
Cloud Levels
  • Clear skies
Temperature
22°C / 72°F
Dewpoint
C / 43°F
Humidity
36%
Altimeter
30.07" Hg
Pressure
1018.32 hPa
Current Rain
0.01"